Time;durP1;ratioP1;P1;durP2;ratioP2;P2;SDS_P1;SDS_P2;PMS_P1;PMS_P2;Temp;Humidity;BMP_temperature;BMP_pressure;BME280_temperature;BME280_humidity;BME280_pressure;Samples;Min_cycle;Max_cycle;Signal;HPM_P1;HPM_P2
2023/12/17 00:02:12;;;;;;;2.97;2.03;;;10.70;99.90;;;;;;5014191;28;20221;-72
2023/12/17 00:04:39;;;;;;;3.00;1.90;;;10.80;99.90;;;;;;5005777;28;20237;-71
2023/12/17 00:07:05;;;;;;;2.63;2.08;;;10.70;99.90;;;;;;5014642;28;20191;-68
2023/12/17 00:09:31;;;;;;;3.22;2.00;;;10.80;99.90;;;;;;5014616;28;20171;-72
2023/12/17 00:11:59;;;;;;;4.25;1.98;;;10.80;99.90;;;;;;5014488;28;20183;-71
2023/12/17 00:14:25;;;;;;;2.80;1.77;;;10.80;99.90;;;;;;5012311;28;20187;-71
2023/12/17 00:16:53;;;;;;;2.28;1.75;;;10.80;99.90;;;;;;5006042;28;20217;-71
2023/12/17 00:19:18;;;;;;;3.42;1.80;;;10.80;99.90;;;;;;5015159;28;20206;-72
2023/12/17 00:21:44;;;;;;;3.25;2.10;;;10.80;99.90;;;;;;5012680;28;20207;-71
2023/12/17 00:24:10;;;;;;;3.78;2.50;;;10.80;99.90;;;;;;5011941;28;20297;-70
2023/12/17 00:26:35;;;;;;;3.60;2.38;;;10.80;99.90;;;;;;5011700;28;20175;-69
2023/12/17 00:29:01;;;;;;;3.00;2.13;;;10.80;99.90;;;;;;5010437;28;20171;-67
2023/12/17 00:31:26;;;;;;;6.55;1.98;;;10.80;99.90;;;;;;5013843;28;20198;-70
2023/12/17 00:33:54;;;;;;;4.10;2.08;;;10.80;99.90;;;;;;5014647;28;20206;-70
2023/12/17 00:36:20;;;;;;;3.20;2.10;;;10.80;99.90;;;;;;5011412;28;20182;-70
2023/12/17 00:38:48;;;;;;;3.08;1.90;;;10.80;99.90;;;;;;5007949;28;20267;-71
2023/12/17 00:41:14;;;;;;;2.95;1.92;;;10.80;99.90;;;;;;5011622;28;20175;-72
2023/12/17 00:43:44;;;;;;;2.63;1.88;;;10.80;99.90;;;;;;5004867;28;20366;-72
2023/12/17 00:46:10;;;;;;;4.97;2.20;;;10.90;99.90;;;;;;5014480;28;20275;-70
2023/12/17 00:48:37;;;;;;;4.07;2.33;;;10.80;99.90;;;;;;5014199;28;20211;-72
2023/12/17 00:51:04;;;;;;;3.80;1.95;;;10.80;99.90;;;;;;5011275;28;20164;-71
2023/12/17 00:53:31;;;;;;;5.95;2.33;;;10.80;99.90;;;;;;5013957;28;20211;-72
2023/12/17 00:56:00;;;;;;;3.15;2.00;;;10.80;99.90;;;;;;5010257;28;20174;-72
2023/12/17 00:58:25;;;;;;;4.68;1.95;;;10.80;99.90;;;;;;5014376;28;20237;-71
2023/12/17 01:00:53;;;;;;;2.47;1.88;;;10.80;99.90;;;;;;5013887;28;20178;-72
2023/12/17 01:03:19;;;;;;;3.40;2.17;;;10.80;99.90;;;;;;5012625;28;20201;-70
2023/12/17 01:05:44;;;;;;;3.72;1.90;;;10.80;99.90;;;;;;5014118;28;20198;-72
2023/12/17 01:08:12;;;;;;;4.38;2.50;;;10.90;99.90;;;;;;5011459;28;20371;-71
2023/12/17 01:10:38;;;;;;;4.68;2.25;;;10.80;99.90;;;;;;5010213;28;20175;-72
2023/12/17 01:13:08;;;;;;;2.95;1.98;;;10.80;99.90;;;;;;5008119;28;20285;-71
2023/12/17 01:15:34;;;;;;;3.53;2.08;;;10.80;99.90;;;;;;5010858;28;20202;-67
2023/12/17 01:18:02;;;;;;;4.32;2.10;;;10.80;99.90;;;;;;5008128;28;20207;-72
2023/12/17 01:20:30;;;;;;;3.45;2.15;;;10.80;99.90;;;;;;5013742;28;20214;-70
2023/12/17 01:22:55;;;;;;;2.70;1.70;;;10.80;99.90;;;;;;5012436;28;20194;-71
2023/12/17 01:25:21;;;;;;;2.55;1.80;;;10.90;99.90;;;;;;5012319;28;20171;-72
2023/12/17 01:27:48;;;;;;;4.13;1.98;;;10.90;99.90;;;;;;5014080;28;20198;-71
2023/12/17 01:30:16;;;;;;;2.58;1.80;;;10.90;99.90;;;;;;5012082;28;20175;-68
2023/12/17 01:32:42;;;;;;;3.47;2.10;;;10.80;99.90;;;;;;5003175;28;20171;-72
2023/12/17 01:35:11;;;;;;;2.10;1.83;;;10.80;99.90;;;;;;5013334;28;20174;-71
2023/12/17 01:37:37;;;;;;;2.97;1.75;;;10.80;99.90;;;;;;5011505;28;20198;-72
2023/12/17 01:40:03;;;;;;;2.88;1.77;;;10.90;99.90;;;;;;5012550;28;20197;-73
2023/12/17 01:42:30;;;;;;;2.75;1.88;;;10.90;99.90;;;;;;5013640;28;20206;-69
2023/12/17 01:44:56;;;;;;;2.63;1.63;;;10.90;99.90;;;;;;5012724;28;20202;-71
2023/12/17 01:47:24;;;;;;;2.78;2.10;;;10.90;99.90;;;;;;5013243;28;20262;-71
2023/12/17 01:49:53;;;;;;;2.92;2.00;;;10.90;99.90;;;;;;5013411;28;20225;-72
2023/12/17 01:52:18;;;;;;;3.47;2.00;;;10.80;99.90;;;;;;5010113;28;20209;-71
2023/12/17 01:54:49;;;;;;;4.15;2.33;;;10.80;99.90;;;;;;4997317;28;20194;-69
2023/12/17 01:57:15;;;;;;;3.97;2.40;;;10.80;99.90;;;;;;5014103;28;20178;-72
2023/12/17 01:59:41;;;;;;;5.22;2.47;;;10.80;99.90;;;;;;5013554;28;20513;-72
2023/12/17 02:02:10;;;;;;;3.70;2.40;;;10.80;99.90;;;;;;5012222;28;20206;-68
2023/12/17 02:04:36;;;;;;;3.30;2.30;;;10.70;99.90;;;;;;5013477;28;20206;-71
2023/12/17 02:07:02;;;;;;;3.75;2.47;;;10.80;99.90;;;;;;5007290;28;20171;-72
2023/12/17 02:09:30;;;;;;;3.83;2.22;;;10.60;99.90;;;;;;5013151;28;20199;-72
2023/12/17 02:11:58;;;;;;;3.45;2.33;;;10.70;99.90;;;;;;5012567;28;20189;-72
2023/12/17 02:14:26;;;;;;;5.47;2.35;;;10.60;99.90;;;;;;4997341;28;20182;-68
2023/12/17 02:16:54;;;;;;;4.13;2.72;;;10.60;99.90;;;;;;5011985;28;20256;-69
2023/12/17 02:19:21;;;;;;;3.33;2.35;;;10.60;99.90;;;;;;5012299;28;20194;-72
2023/12/17 02:21:54;;;;;;;4.47;2.15;;;10.60;99.90;;;;;;5013120;28;20336;-71
2023/12/17 02:24:20;;;;;;;4.78;2.40;;;10.60;99.90;;;;;;5005427;28;20489;-70
2023/12/17 02:26:45;;;;;;;3.28;2.10;;;10.50;99.90;;;;;;5006497;28;20193;-71
2023/12/17 02:29:11;;;;;;;4.13;2.20;;;10.50;99.90;;;;;;5013427;28;20170;-71
2023/12/17 02:31:36;;;;;;;3.08;1.70;;;10.50;99.90;;;;;;5013130;28;20174;-71
2023/12/17 02:34:02;;;;;;;3.10;1.88;;;10.50;99.90;;;;;;5016146;28;20260;-68
2023/12/17 02:36:28;;;;;;;3.08;1.80;;;10.50;99.90;;;;;;5017313;28;20225;-72
2023/12/17 02:38:55;;;;;;;3.40;1.90;;;10.50;99.90;;;;;;5014422;28;20191;-71
2023/12/17 02:41:21;;;;;;;2.78;1.77;;;10.50;99.90;;;;;;5017524;28;20182;-69
2023/12/17 02:43:47;;;;;;;3.08;1.90;;;10.50;99.90;;;;;;5011294;28;20210;-70
2023/12/17 02:46:12;;;;;;;3.15;1.80;;;10.50;99.90;;;;;;5016432;28;20258;-71
2023/12/17 02:48:39;;;;;;;2.30;1.92;;;10.50;99.90;;;;;;5015830;28;20171;-71
2023/12/17 02:51:07;;;;;;;3.42;1.80;;;10.40;99.90;;;;;;5013436;28;20289;-68
2023/12/17 02:53:33;;;;;;;3.40;1.63;;;10.50;99.90;;;;;;5015373;28;20249;-71
2023/12/17 02:56:02;;;;;;;3.25;1.58;;;10.50;99.90;;;;;;5016624;28;20190;-72
2023/12/17 02:58:30;;;;;;;3.08;1.70;;;10.50;99.90;;;;;;5015329;28;20203;-71
2023/12/17 03:00:55;;;;;;;3.95;1.83;;;10.50;99.90;;;;;;5016770;28;20183;-72
2023/12/17 03:03:21;;;;;;;2.90;1.98;;;10.40;99.90;;;;;;5017041;28;20217;-70
2023/12/17 03:05:49;;;;;;;2.22;1.73;;;10.50;99.90;;;;;;5013753;28;20197;-71
2023/12/17 03:08:17;;;;;;;2.85;1.90;;;10.50;99.90;;;;;;5016593;28;20206;-70
2023/12/17 03:10:43;;;;;;;2.88;1.77;;;10.50;99.90;;;;;;5011359;28;20233;-71
2023/12/17 03:13:11;;;;;;;2.65;1.85;;;10.50;99.90;;;;;;5009116;28;20262;-69
2023/12/17 03:15:39;;;;;;;2.28;1.60;;;10.50;99.90;;;;;;5011421;28;20214;-71
2023/12/17 03:18:05;;;;;;;3.83;2.00;;;10.50;99.90;;;;;;5003875;28;20455;-70
2023/12/17 03:20:33;;;;;;;2.92;1.80;;;10.60;99.90;;;;;;5015225;28;20265;-72
2023/12/17 03:23:00;;;;;;;4.07;1.85;;;10.50;99.90;;;;;;5016247;28;20182;-70
2023/12/17 03:25:26;;;;;;;2.42;1.58;;;10.50;99.90;;;;;;5017404;28;20198;-71
2023/12/17 03:27:52;;;;;;;3.53;1.88;;;10.60;99.90;;;;;;5020820;28;20322;-68
2023/12/17 03:30:18;;;;;;;3.78;1.90;;;10.50;99.90;;;;;;5017022;28;20253;-71
2023/12/17 03:32:46;;;;;;;3.40;2.25;;;10.50;99.90;;;;;;5015442;28;20209;-72
2023/12/17 03:35:11;;;;;;;3.03;1.80;;;10.50;99.90;;;;;;5010645;28;20443;-71
2023/12/17 03:37:37;;;;;;;3.70;2.00;;;10.50;99.90;;;;;;5016011;28;20186;-71
2023/12/17 03:40:03;;;;;;;4.00;2.03;;;10.50;99.90;;;;;;5016074;28;20194;-73
2023/12/17 03:42:28;;;;;;;2.92;1.90;;;10.50;99.90;;;;;;5016052;28;20185;-72
2023/12/17 03:44:54;;;;;;;2.72;2.05;;;10.50;99.90;;;;;;5010211;28;20218;-71
2023/12/17 03:47:20;;;;;;;3.50;2.08;;;10.50;99.90;;;;;;5005803;28;20213;-71
2023/12/17 03:49:45;;;;;;;3.30;2.25;;;10.50;99.90;;;;;;5016736;28;20210;-70
2023/12/17 03:52:11;;;;;;;3.72;2.28;;;10.50;99.90;;;;;;5013489;28;20179;-72
2023/12/17 03:54:39;;;;;;;3.63;2.58;;;10.50;99.90;;;;;;5016084;28;20187;-70
2023/12/17 03:57:04;;;;;;;3.90;2.53;;;10.40;99.90;;;;;;5016276;28;20209;-69
2023/12/17 03:59:30;;;;;;;4.85;2.42;;;10.40;99.90;;;;;;5014630;28;20187;-72
2023/12/17 04:01:58;;;;;;;5.28;2.60;;;10.40;99.90;;;;;;5014669;28;20255;-70
2023/12/17 04:04:23;;;;;;;3.42;2.22;;;10.40;99.90;;;;;;5015935;28;20209;-70
2023/12/17 04:06:54;;;;;;;4.68;2.38;;;10.30;99.90;;;;;;5015280;28;20194;-71
2023/12/17 04:09:22;;;;;;;3.60;2.53;;;10.30;99.90;;;;;;5016228;28;20175;-70
2023/12/17 04:11:48;;;;;;;3.58;2.58;;;10.30;99.90;;;;;;5013819;28;20278;-72
2023/12/17 04:14:13;;;;;;;4.15;2.47;;;10.30;99.90;;;;;;5013638;28;20450;-72
2023/12/17 04:16:39;;;;;;;4.25;2.80;;;10.20;99.90;;;;;;4999165;28;20182;-71
2023/12/17 04:19:09;;;;;;;4.15;2.53;;;10.20;99.90;;;;;;5015969;28;20202;-70
2023/12/17 04:21:37;;;;;;;4.35;2.88;;;10.30;99.90;;;;;;5007820;28;20215;-71
2023/12/17 04:24:05;;;;;;;5.88;2.92;;;10.20;99.90;;;;;;5013983;28;20206;-69
2023/12/17 04:26:34;;;;;;;3.63;2.83;;;10.20;99.90;;;;;;5015164;28;20182;-70
2023/12/17 04:28:59;;;;;;;4.93;3.28;;;10.10;99.90;;;;;;5013915;28;20179;-69
2023/12/17 04:31:25;;;;;;;4.68;3.30;;;10.10;99.90;;;;;;5014337;28;20553;-69
2023/12/17 04:33:50;;;;;;;5.85;3.30;;;10.10;99.90;;;;;;5014558;28;20175;-70
2023/12/17 04:36:21;;;;;;;5.75;3.53;;;10.10;99.90;;;;;;5009842;28;20185;-70
2023/12/17 04:38:48;;;;;;;7.28;3.58;;;10.00;99.90;;;;;;5015146;28;20209;-71
2023/12/17 04:41:19;;;;;;;4.60;3.30;;;10.00;99.90;;;;;;5014499;28;20249;-71
2023/12/17 04:43:45;;;;;;;5.25;3.33;;;10.00;99.90;;;;;;5010206;28;20195;-71
2023/12/17 04:46:11;;;;;;;5.20;3.30;;;9.90;99.90;;;;;;5009450;28;20263;-71
2023/12/17 04:48:36;;;;;;;5.03;3.58;;;9.90;99.90;;;;;;5013196;28;20257;-71
2023/12/17 04:51:03;;;;;;;5.05;3.28;;;9.90;99.90;;;;;;5014027;28;20179;-71
2023/12/17 04:53:28;;;;;;;5.47;3.13;;;9.90;99.90;;;;;;5003400;28;20214;-70
2023/12/17 04:55:54;;;;;;;5.97;3.13;;;9.90;99.90;;;;;;5006833;28;20206;-70
2023/12/17 04:58:19;;;;;;;5.00;3.03;;;9.90;99.90;;;;;;5011232;28;20183;-70
2023/12/17 05:00:47;;;;;;;4.93;3.00;;;10.00;99.90;;;;;;5010135;28;20285;-70
2023/12/17 05:03:13;;;;;;;3.97;2.85;;;9.90;99.90;;;;;;4999755;28;20206;-71
2023/12/17 05:05:44;;;;;;;4.53;3.17;;;9.90;99.90;;;;;;5015102;28;20200;-70
2023/12/17 05:08:09;;;;;;;4.95;3.10;;;9.90;99.90;;;;;;5013608;28;20217;-70
2023/12/17 05:10:35;;;;;;;4.22;2.92;;;9.90;99.90;;;;;;5011975;28;20207;-71
2023/12/17 05:13:00;;;;;;;5.65;3.10;;;9.90;99.90;;;;;;5014794;28;20175;-69
2023/12/17 05:15:28;;;;;;;4.03;3.05;;;9.90;99.90;;;;;;5011038;28;20187;-71
2023/12/17 05:17:56;;;;;;;3.80;2.78;;;10.00;99.90;;;;;;5001120;28;20221;-70
2023/12/17 05:20:22;;;;;;;4.55;2.75;;;10.00;99.90;;;;;;5014239;28;20174;-71
2023/12/17 05:22:47;;;;;;;3.92;2.80;;;9.90;99.90;;;;;;5010842;28;20185;-71
2023/12/17 05:25:17;;;;;;;5.22;3.00;;;10.00;99.90;;;;;;5015235;28;20265;-70
2023/12/17 05:27:45;;;;;;;4.72;2.85;;;10.00;99.90;;;;;;5014040;28;20224;-70
2023/12/17 05:30:14;;;;;;;4.03;2.88;;;10.00;99.90;;;;;;5017654;28;20175;-69
2023/12/17 05:32:40;;;;;;;5.38;3.13;;;10.00;99.90;;;;;;5019992;28;20253;-71
2023/12/17 05:35:06;;;;;;;4.63;2.90;;;9.90;99.90;;;;;;5018374;28;20179;-70
2023/12/17 05:37:31;;;;;;;3.65;2.95;;;9.90;99.90;;;;;;5014047;28;20182;-71
2023/12/17 05:40:02;;;;;;;4.15;2.80;;;9.90;99.90;;;;;;5010238;28;20298;-71
2023/12/17 05:42:34;;;;;;;3.53;2.92;;;9.90;99.90;;;;;;5005309;28;20190;-71
2023/12/17 05:45:05;;;;;;;3.60;2.80;;;9.90;99.90;;;;;;5012105;28;20191;-71
2023/12/17 05:47:31;;;;;;;3.97;2.70;;;9.90;99.90;;;;;;5013074;28;20178;-71
2023/12/17 05:49:59;;;;;;;4.43;3.08;;;9.90;99.90;;;;;;5012985;28;20182;-70
2023/12/17 05:52:27;;;;;;;4.15;2.78;;;9.90;99.90;;;;;;5011050;28;20183;-71
2023/12/17 05:54:55;;;;;;;3.88;2.60;;;9.90;99.90;;;;;;5013706;28;20198;-71
2023/12/17 05:57:22;;;;;;;2.92;2.25;;;9.90;99.90;;;;;;5013519;28;20183;-70
2023/12/17 05:59:48;;;;;;;3.08;2.40;;;9.90;99.90;;;;;;5013922;28;20213;-71
2023/12/17 06:02:16;;;;;;;3.28;2.50;;;9.90;99.90;;;;;;5007590;28;20410;-70
2023/12/17 06:04:41;;;;;;;3.55;2.38;;;9.80;99.90;;;;;;5014376;28;20289;-70
2023/12/17 06:07:07;;;;;;;3.47;2.33;;;9.80;99.90;;;;;;5004047;28;20235;-71
2023/12/17 06:09:34;;;;;;;3.22;2.33;;;9.80;99.90;;;;;;5014128;28;20186;-71
2023/12/17 06:12:00;;;;;;;4.10;2.25;;;9.80;99.90;;;;;;5006852;28;20170;-70
2023/12/17 06:14:27;;;;;;;2.90;2.15;;;9.80;99.90;;;;;;4999341;28;20217;-71
2023/12/17 06:16:53;;;;;;;3.72;2.40;;;9.80;99.90;;;;;;5012489;28;20282;-70
2023/12/17 06:19:21;;;;;;;2.88;2.10;;;9.80;99.90;;;;;;5010655;28;20502;-71
2023/12/17 06:21:49;;;;;;;4.00;2.40;;;9.80;99.90;;;;;;5019476;28;20202;-71
2023/12/17 06:24:14;;;;;;;3.92;2.30;;;9.70;99.90;;;;;;5025732;28;20210;-70
2023/12/17 06:26:45;;;;;;;2.95;2.20;;;9.70;99.90;;;;;;5011118;28;20285;-71
2023/12/17 06:29:13;;;;;;;2.65;2.17;;;9.70;99.90;;;;;;5007309;28;20196;-69
2023/12/17 06:31:40;;;;;;;2.85;2.15;;;9.70;99.90;;;;;;5007303;28;20197;-71
2023/12/17 06:34:08;;;;;;;3.55;2.03;;;9.70;99.90;;;;;;5011111;28;20293;-71
2023/12/17 06:36:36;;;;;;;2.60;2.20;;;9.70;99.90;;;;;;5009321;28;20175;-71
2023/12/17 06:39:09;;;;;;;3.10;2.05;;;9.70;99.90;;;;;;5007324;28;20179;-71
2023/12/17 06:41:38;;;;;;;3.08;1.98;;;9.70;99.90;;;;;;5007497;28;20893;-71
2023/12/17 06:44:06;;;;;;;2.53;2.00;;;9.70;99.90;;;;;;5023144;28;20195;-70
2023/12/17 06:46:31;;;;;;;2.83;1.85;;;9.70;99.90;;;;;;5002496;28;20179;-71
2023/12/17 06:48:57;;;;;;;2.72;2.00;;;9.70;99.90;;;;;;5013822;28;20254;-70
2023/12/17 06:51:23;;;;;;;2.33;1.90;;;9.70;99.90;;;;;;5015764;28;20214;-69
2023/12/17 06:53:48;;;;;;;2.72;1.77;;;9.70;99.90;;;;;;5010857;28;20171;-71
2023/12/17 06:56:14;;;;;;;2.80;2.03;;;9.80;99.90;;;;;;5013724;28;20193;-70
2023/12/17 06:58:40;;;;;;;2.72;1.98;;;9.80;99.90;;;;;;5007988;28;20179;-70
2023/12/17 07:01:10;;;;;;;2.90;1.92;;;9.70;99.90;;;;;;5005227;28;20235;-72
2023/12/17 07:03:36;;;;;;;2.08;1.83;;;9.80;99.90;;;;;;5009673;28;20223;-72
2023/12/17 07:06:02;;;;;;;2.55;2.08;;;9.70;99.90;;;;;;5012352;28;20252;-72
2023/12/17 07:08:30;;;;;;;2.65;1.98;;;9.70;99.90;;;;;;5013208;28;20199;-71
2023/12/17 07:10:58;;;;;;;2.10;1.70;;;9.70;99.90;;;;;;5008464;28;20258;-71
2023/12/17 07:13:26;;;;;;;2.63;1.85;;;9.70;99.90;;;;;;5001068;28;20232;-72
2023/12/17 07:15:51;;;;;;;2.97;2.53;;;9.80;99.90;;;;;;5010428;28;20214;-72
2023/12/17 07:18:17;;;;;;;2.95;2.42;;;9.70;99.90;;;;;;5012653;28;20202;-72
2023/12/17 07:20:43;;;;;;;2.25;2.00;;;9.70;99.90;;;;;;5013086;28;20285;-69
2023/12/17 07:23:09;;;;;;;3.70;1.85;;;9.70;99.90;;;;;;5016031;28;20189;-72
2023/12/17 07:25:37;;;;;;;2.60;1.98;;;9.70;99.90;;;;;;5014992;28;20270;-71
2023/12/17 07:28:02;;;;;;;2.50;2.22;;;9.70;99.90;;;;;;5011277;28;20194;-71
2023/12/17 07:30:31;;;;;;;3.17;2.55;;;9.60;99.90;;;;;;5012754;28;20234;-70
2023/12/17 07:32:57;;;;;;;3.72;2.30;;;9.60;99.90;;;;;;5012139;28;20219;-71
2023/12/17 07:35:22;;;;;;;3.05;2.40;;;9.60;99.90;;;;;;5016973;28;20195;-71
2023/12/17 07:37:48;;;;;;;3.20;2.60;;;9.60;99.90;;;;;;5022066;28;20171;-71
2023/12/17 07:40:16;;;;;;;3.17;2.63;;;9.60;99.90;;;;;;5011216;28;20187;-70
2023/12/17 07:42:42;;;;;;;3.20;2.45;;;9.60;99.90;;;;;;5016488;28;20195;-71
2023/12/17 07:45:08;;;;;;;3.65;2.83;;;9.60;99.90;;;;;;5016982;28;20208;-72
2023/12/17 07:47:34;;;;;;;2.83;2.25;;;9.60;99.90;;;;;;5016621;28;20272;-71
2023/12/17 07:50:02;;;;;;;2.60;2.25;;;9.60;99.90;;;;;;5016631;28;20218;-72
2023/12/17 07:52:27;;;;;;;2.72;2.25;;;9.50;99.90;;;;;;5014086;28;20182;-72
2023/12/17 07:54:53;;;;;;;3.33;2.40;;;9.60;99.90;;;;;;5014807;28;20234;-71
2023/12/17 07:57:22;;;;;;;2.55;2.30;;;9.60;99.90;;;;;;5012715;28;20183;-72
2023/12/17 07:59:47;;;;;;;2.92;2.60;;;9.60;99.90;;;;;;5013844;28;20209;-70
2023/12/17 08:02:17;;;;;;;3.17;2.70;;;9.60;99.90;;;;;;5015014;28;20198;-72
2023/12/17 08:04:43;;;;;;;2.55;2.35;;;9.60;99.90;;;;;;5016347;28;20237;-72
2023/12/17 08:07:12;;;;;;;2.78;2.45;;;9.60;99.90;;;;;;5014548;28;20167;-72
2023/12/17 08:09:39;;;;;;;3.33;2.67;;;9.60;99.90;;;;;;5012345;28;20183;-73
2023/12/17 08:12:07;;;;;;;2.78;2.30;;;9.60;99.90;;;;;;5002542;28;20172;-72
2023/12/17 08:14:36;;;;;;;3.28;2.45;;;9.60;99.90;;;;;;5014564;28;20203;-72
2023/12/17 08:17:02;;;;;;;2.42;2.22;;;9.60;99.90;;;;;;5017500;28;20185;-72
2023/12/17 08:19:28;;;;;;;2.38;2.10;;;9.60;99.90;;;;;;5010730;28;20187;-72
2023/12/17 08:21:55;;;;;;;2.30;2.10;;;9.60;99.90;;;;;;5013687;28;20213;-72
2023/12/17 08:24:24;;;;;;;2.53;2.10;;;9.60;99.90;;;;;;5014680;28;20198;-72
2023/12/17 08:26:57;;;;;;;4.18;3.25;;;9.60;99.90;;;;;;5012000;28;20178;-72
2023/12/17 08:29:24;;;;;;;3.97;3.03;;;9.60;99.90;;;;;;5015609;28;20201;-72
2023/12/17 08:31:52;;;;;;;3.58;2.47;;;9.60;99.90;;;;;;5008164;28;20183;-72
2023/12/17 08:34:17;;;;;;;2.85;2.33;;;9.60;99.90;;;;;;5003733;28;20191;-71
2023/12/17 08:36:48;;;;;;;2.60;2.30;;;9.60;99.90;;;;;;5015679;28;20205;-71
2023/12/17 08:39:16;;;;;;;3.10;2.40;;;9.60;99.90;;;;;;5009667;28;20241;-71
2023/12/17 08:41:43;;;;;;;2.85;2.28;;;9.50;99.90;;;;;;5015596;28;20198;-70
2023/12/17 08:44:09;;;;;;;3.70;2.30;;;9.50;99.90;;;;;;5005493;28;20198;-72
2023/12/17 08:46:37;;;;;;;2.15;1.95;;;9.50;99.90;;;;;;5014915;28;20182;-72
2023/12/17 08:49:03;;;;;;;2.63;1.90;;;9.50;99.90;;;;;;5012461;28;20196;-72
2023/12/17 08:51:29;;;;;;;1.90;1.70;;;9.50;99.90;;;;;;5006609;28;20225;-72
2023/12/17 08:53:55;;;;;;;1.75;1.60;;;9.60;99.90;;;;;;5002094;28;20258;-72
2023/12/17 08:56:23;;;;;;;2.00;1.80;;;9.50;99.90;;;;;;5010008;28;20213;-72
2023/12/17 08:58:48;;;;;;;3.47;2.20;;;9.50;99.90;;;;;;5015231;28;20183;-73
2023/12/17 09:01:14;;;;;;;1.90;1.70;;;9.60;99.90;;;;;;5014348;28;20179;-72
2023/12/17 09:03:41;;;;;;;1.55;1.45;;;9.60;99.90;;;;;;5000609;28;20294;-72
2023/12/17 09:06:07;;;;;;;1.40;1.30;;;9.60;99.90;;;;;;5009020;28;20178;-73
2023/12/17 09:08:33;;;;;;;1.85;1.60;;;9.70;99.90;;;;;;5011528;28;20177;-73
2023/12/17 09:11:01;;;;;;;1.73;1.50;;;9.70;99.90;;;;;;5007593;28;20225;-72
2023/12/17 09:13:29;;;;;;;1.92;1.58;;;9.80;99.90;;;;;;5013839;28;20465;-72
2023/12/17 09:15:54;;;;;;;1.50;1.40;;;9.80;99.90;;;;;;5015196;28;20242;-73
2023/12/17 09:18:20;;;;;;;1.35;1.25;;;9.90;99.90;;;;;;5015104;28;20218;-72
2023/12/17 09:20:48;;;;;;;1.80;1.50;;;9.90;99.90;;;;;;5014998;28;20182;-72
2023/12/17 09:23:16;;;;;;;1.90;1.50;;;9.90;99.90;;;;;;5009212;28;20233;-71
2023/12/17 09:25:41;;;;;;;3.78;2.78;;;9.90;99.90;;;;;;5010512;28;20416;-72
2023/12/17 09:28:07;;;;;;;2.53;2.03;;;10.00;99.90;;;;;;5013722;28;20462;-72
2023/12/17 09:30:35;;;;;;;1.98;1.73;;;10.00;99.90;;;;;;5013173;28;20187;-71
2023/12/17 09:33:00;;;;;;;1.92;1.70;;;10.10;99.90;;;;;;5013643;28;20174;-72
2023/12/17 09:35:29;;;;;;;1.70;1.38;;;10.00;99.90;;;;;;5014743;28;20190;-72
2023/12/17 09:37:54;;;;;;;1.60;1.50;;;10.10;99.90;;;;;;5010971;28;20281;-72
2023/12/17 09:40:22;;;;;;;1.67;1.52;;;10.10;99.90;;;;;;5010118;28;20257;-72
2023/12/17 09:42:52;;;;;;;1.45;1.35;;;10.10;99.90;;;;;;4996701;28;20180;-73
2023/12/17 09:45:18;;;;;;;2.00;1.42;;;10.10;99.90;;;;;;5020893;28;20217;-72
2023/12/17 09:47:44;;;;;;;1.70;1.23;;;10.00;99.90;;;;;;5019052;28;20184;-72
2023/12/17 09:50:13;;;;;;;1.60;1.50;;;10.10;99.90;;;;;;5016211;28;20198;-72
2023/12/17 09:52:43;;;;;;;1.52;1.40;;;10.10;99.90;;;;;;5014760;28;20222;-72
2023/12/17 09:55:14;;;;;;;1.40;1.30;;;10.10;99.90;;;;;;5014524;28;20217;-72
2023/12/17 09:57:40;;;;;;;2.15;1.65;;;10.10;99.90;;;;;;5012359;28;20209;-72
2023/12/17 10:00:12;;;;;;;1.70;1.52;;;10.20;99.90;;;;;;5015129;28;20221;-72
2023/12/17 10:02:43;;;;;;;2.10;1.83;;;10.20;99.90;;;;;;5005879;28;20247;-72
2023/12/17 10:05:08;;;;;;;2.83;2.00;;;10.30;99.90;;;;;;5004685;28;20214;-72
2023/12/17 10:07:40;;;;;;;3.47;2.85;;;10.30;99.90;;;;;;5013792;28;20178;-72
2023/12/17 10:10:06;;;;;;;3.20;2.45;;;10.40;99.90;;;;;;5002889;28;20179;-72
2023/12/17 10:12:35;;;;;;;2.75;2.33;;;10.40;99.90;;;;;;5013384;28;20198;-71
2023/12/17 10:15:01;;;;;;;2.33;2.08;;;10.40;99.90;;;;;;5013645;28;20206;-72
2023/12/17 10:17:28;;;;;;;2.30;2.10;;;10.40;99.90;;;;;;5014421;28;20204;-72
2023/12/17 10:19:56;;;;;;;2.65;2.42;;;10.50;99.90;;;;;;5014209;28;20214;-72
2023/12/17 10:22:22;;;;;;;2.55;2.35;;;10.50;99.90;;;;;;5002084;28;20367;-72
2023/12/17 10:24:51;;;;;;;2.22;2.03;;;10.50;99.90;;;;;;5012248;28;20202;-71
2023/12/17 10:27:18;;;;;;;2.88;2.05;;;10.60;99.90;;;;;;5013644;28;20376;-72
2023/12/17 10:29:49;;;;;;;2.78;2.20;;;10.60;99.90;;;;;;5012319;28;20265;-72
2023/12/17 10:32:19;;;;;;;2.10;1.70;;;10.70;99.90;;;;;;5007735;28;20186;-72
2023/12/17 10:34:49;;;;;;;2.28;1.95;;;10.80;99.90;;;;;;5009926;28;20248;-72
2023/12/17 10:37:23;;;;;;;2.67;2.05;;;11.00;99.90;;;;;;5014120;28;20182;-71
2023/12/17 10:39:50;;;;;;;2.50;2.20;;;11.10;99.90;;;;;;5013063;28;20951;-72
2023/12/17 10:42:19;;;;;;;3.13;2.10;;;11.20;99.90;;;;;;5011315;28;20237;-73
2023/12/17 10:44:53;;;;;;;2.38;2.10;;;11.30;99.90;;;;;;5006996;28;20294;-72
2023/12/17 10:47:26;;;;;;;2.63;2.10;;;11.50;99.90;;;;;;5013180;28;20261;-72
2023/12/17 10:50:00;;;;;;;2.45;2.22;;;11.50;99.90;;;;;;5002968;28;20179;-73
2023/12/17 10:52:28;;;;;;;2.53;2.22;;;11.70;99.90;;;;;;5009970;28;20183;-73
2023/12/17 10:54:56;;;;;;;2.33;2.03;;;11.70;99.90;;;;;;5010478;28;20212;-73
2023/12/17 10:57:24;;;;;;;2.90;2.47;;;11.90;99.90;;;;;;5015503;28;20369;-72
2023/12/17 10:59:57;;;;;;;3.47;2.45;;;11.90;99.90;;;;;;5016956;28;20265;-72
2023/12/17 11:02:24;;;;;;;2.47;2.28;;;11.90;99.90;;;;;;5011511;28;20228;-73
2023/12/17 11:04:49;;;;;;;3.05;2.60;;;11.90;99.90;;;;;;5015511;28;20195;-70
2023/12/17 11:07:17;;;;;;;2.72;2.28;;;12.00;99.90;;;;;;5006435;28;20206;-70
2023/12/17 11:09:44;;;;;;;2.88;2.10;;;12.00;99.90;;;;;;5016446;28;20185;-69
2023/12/17 11:12:18;;;;;;;2.92;2.17;;;12.00;99.90;;;;;;5016765;28;20225;-70
2023/12/17 11:14:45;;;;;;;2.60;2.40;;;12.10;99.90;;;;;;5017603;28;20193;-70
2023/12/17 11:17:15;;;;;;;2.40;2.00;;;12.20;99.90;;;;;;5012675;28;20183;-71
2023/12/17 11:19:56;;;;;;;2.65;1.98;;;12.30;99.90;;;;;;5008405;28;20203;-71
2023/12/17 11:22:23;;;;;;;2.35;1.80;;;12.40;99.90;;;;;;5017207;28;20318;-72
2023/12/17 11:24:59;;;;;;;2.28;1.85;;;12.60;99.90;;;;;;5016698;28;20234;-71
2023/12/17 11:27:29;;;;;;;2.90;2.28;;;12.70;99.90;;;;;;5018057;28;20181;-71
2023/12/17 11:29:58;;;;;;;2.28;2.00;;;12.90;99.90;;;;;;5013458;28;20175;-71
2023/12/17 11:32:27;;;;;;;1.75;1.63;;;13.00;99.90;;;;;;5016888;28;20281;-70
2023/12/17 11:34:58;;;;;;;2.03;1.80;;;13.10;99.90;;;;;;5017123;28;20186;-69
2023/12/17 11:37:30;;;;;;;2.50;1.90;;;13.20;99.90;;;;;;5016106;28;20182;-69
2023/12/17 11:39:55;;;;;;;3.17;2.03;;;13.40;99.90;;;;;;5027397;28;20200;-70
2023/12/17 11:42:21;;;;;;;2.22;1.70;;;13.50;99.90;;;;;;5027950;28;20179;-69
2023/12/17 11:44:48;;;;;;;1.67;1.58;;;13.70;99.90;;;;;;5012720;28;20218;-69
2023/12/17 11:47:15;;;;;;;2.15;1.77;;;13.80;99.90;;;;;;5010039;28;20262;-70
2023/12/17 11:49:43;;;;;;;2.50;1.80;;;13.80;99.90;;;;;;5014661;28;20175;-70
2023/12/17 11:52:20;;;;;;;1.70;1.60;;;13.90;99.90;;;;;;5010933;28;20207;-70
2023/12/17 11:54:45;;;;;;;1.70;1.40;;;14.10;99.90;;;;;;5020096;28;20183;-70
2023/12/17 11:57:23;;;;;;;2.15;1.60;;;14.30;99.90;;;;;;5022571;28;20195;-68
2023/12/17 11:59:50;;;;;;;1.90;1.60;;;14.50;99.90;;;;;;5036732;28;20281;-71
2023/12/17 12:02:17;;;;;;;1.90;1.60;;;14.70;99.90;;;;;;5018893;28;20183;-71
2023/12/17 12:04:46;;;;;;;2.38;1.88;;;14.90;99.90;;;;;;5012968;28;20198;-71
2023/12/17 12:07:21;;;;;;;2.67;1.90;;;15.10;99.90;;;;;;5007217;28;20201;-71
2023/12/17 12:09:47;;;;;;;2.83;2.25;;;15.20;99.90;;;;;;5008892;28;20240;-70
2023/12/17 12:12:17;;;;;;;2.20;1.80;;;15.20;99.90;;;;;;5013246;28;20174;-70
2023/12/17 12:14:48;;;;;;;2.08;1.88;;;15.20;99.90;;;;;;5015193;28;20178;-71
2023/12/17 12:17:40;;;;;;;2.28;1.70;;;15.20;99.90;;;;;;5007268;28;20170;-70
2023/12/17 12:20:10;;;;;;;2.38;1.70;;;15.30;99.90;;;;;;5006865;28;20552;-73
2023/12/17 12:22:38;;;;;;;1.92;1.70;;;15.30;99.90;;;;;;5014525;28;20194;-70
2023/12/17 12:25:10;;;;;;;2.58;1.80;;;15.30;99.90;;;;;;5007912;28;20254;-70
2023/12/17 12:27:39;;;;;;;2.92;2.03;;;15.40;99.90;;;;;;4997172;28;20200;-71
2023/12/17 12:30:05;;;;;;;2.85;2.10;;;15.40;99.90;;;;;;5011743;28;20187;-68
2023/12/17 12:32:32;;;;;;;3.22;2.22;;;15.40;99.90;;;;;;5015466;28;20199;-71
2023/12/17 12:35:01;;;;;;;3.00;2.20;;;15.30;99.90;;;;;;5015236;28;20182;-72
2023/12/17 12:37:45;;;;;;;2.33;2.10;;;15.20;99.90;;;;;;5015650;28;20183;-72
2023/12/17 12:40:10;;;;;;;3.55;2.20;;;15.10;99.90;;;;;;5007580;28;20317;-70
2023/12/17 12:42:36;;;;;;;2.30;1.88;;;15.00;99.90;;;;;;5014607;28;20318;-71
2023/12/17 12:45:05;;;;;;;2.33;2.13;;;14.80;99.90;;;;;;5013829;28;20206;-68
2023/12/17 12:47:30;;;;;;;2.72;2.05;;;14.70;99.90;;;;;;5006671;28;20186;-71
2023/12/17 12:49:56;;;;;;;2.67;2.00;;;14.50;99.90;;;;;;5011912;28;20174;-66
2023/12/17 12:52:23;;;;;;;3.05;1.73;;;14.30;99.90;;;;;;5013942;28;20198;-72